sensor_id;sensor_type;location;lat;lon;timestamp;P1;durP1;ratioP1;P2;durP2;ratioP2
8893;SDS011;4483;48.622;9.230;2022-09-01T00:01:14;6.37;;;4.50;;
8893;SDS011;4483;48.622;9.230;2022-09-01T00:03:45;7.53;;;5.63;;
8893;SDS011;4483;48.622;9.230;2022-09-01T00:06:13;11.37;;;5.10;;
8893;SDS011;4483;48.622;9.230;2022-09-01T00:08:40;9.07;;;5.47;;
8893;SDS011;4483;48.622;9.230;2022-09-01T00:11:07;24.00;;;6.00;;
8893;SDS011;4483;48.622;9.230;2022-09-01T00:13:35;10.70;;;4.97;;
8893;SDS011;4483;48.622;9.230;2022-09-01T00:16:02;4.57;;;4.13;;
8893;SDS011;4483;48.622;9.230;2022-09-01T00:18:29;4.90;;;4.50;;
8893;SDS011;4483;48.622;9.230;2022-09-01T00:20:57;5.83;;;5.33;;
8893;SDS011;4483;48.622;9.230;2022-09-01T00:23:24;15.00;;;5.30;;
8893;SDS011;4483;48.622;9.230;2022-09-01T00:25:52;6.00;;;5.03;;
8893;SDS011;4483;48.622;9.230;2022-09-01T00:28:19;10.63;;;5.60;;
8893;SDS011;4483;48.622;9.230;2022-09-01T00:30:47;5.10;;;4.60;;
8893;SDS011;4483;48.622;9.230;2022-09-01T00:33:13;5.27;;;4.87;;
8893;SDS011;4483;48.622;9.230;2022-09-01T00:35:40;7.77;;;4.70;;
8893;SDS011;4483;48.622;9.230;2022-09-01T00:38:07;5.30;;;4.33;;
8893;SDS011;4483;48.622;9.230;2022-09-01T00:40:33;5.17;;;4.77;;
8893;SDS011;4483;48.622;9.230;2022-09-01T00:43:01;9.57;;;4.93;;
8893;SDS011;4483;48.622;9.230;2022-09-01T00:45:36;5.60;;;5.10;;
8893;SDS011;4483;48.622;9.230;2022-09-01T00:48:05;6.30;;;5.70;;
8893;SDS011;4483;48.622;9.230;2022-09-01T00:50:31;5.10;;;4.70;;
8893;SDS011;4483;48.622;9.230;2022-09-01T00:52:58;5.23;;;4.30;;
8893;SDS011;4483;48.622;9.230;2022-09-01T00:55:25;4.97;;;4.63;;
8893;SDS011;4483;48.622;9.230;2022-09-01T00:57:55;5.07;;;4.67;;
8893;SDS011;4483;48.622;9.230;2022-09-01T01:00:24;4.83;;;4.27;;
8893;SDS011;4483;48.622;9.230;2022-09-01T01:02:55;11.03;;;4.50;;
8893;SDS011;4483;48.622;9.230;2022-09-01T01:05:25;5.07;;;4.27;;
8893;SDS011;4483;48.622;9.230;2022-09-01T01:07:57;4.83;;;4.43;;
8893;SDS011;4483;48.622;9.230;2022-09-01T01:10:25;4.63;;;4.00;;
8893;SDS011;4483;48.622;9.230;2022-09-01T01:12:57;4.30;;;4.00;;
8893;SDS011;4483;48.622;9.230;2022-09-01T01:15:26;5.50;;;4.40;;
8893;SDS011;4483;48.622;9.230;2022-09-01T01:17:54;5.90;;;4.30;;
8893;SDS011;4483;48.622;9.230;2022-09-01T01:20:22;4.10;;;3.77;;
8893;SDS011;4483;48.622;9.230;2022-09-01T01:23:15;6.63;;;3.90;;
8893;SDS011;4483;48.622;9.230;2022-09-01T01:25:49;4.00;;;3.70;;
8893;SDS011;4483;48.622;9.230;2022-09-01T01:28:19;4.77;;;4.00;;
8893;SDS011;4483;48.622;9.230;2022-09-01T01:30:48;4.43;;;4.13;;
8893;SDS011;4483;48.622;9.230;2022-09-01T01:33:17;7.67;;;4.00;;
8893;SDS011;4483;48.622;9.230;2022-09-01T01:35:43;4.30;;;4.00;;
8893;SDS011;4483;48.622;9.230;2022-09-01T01:38:11;6.37;;;4.03;;
8893;SDS011;4483;48.622;9.230;2022-09-01T01:40:39;9.37;;;4.60;;
8893;SDS011;4483;48.622;9.230;2022-09-01T01:43:08;4.97;;;3.93;;
8893;SDS011;4483;48.622;9.230;2022-09-01T01:45:35;8.13;;;4.13;;
8893;SDS011;4483;48.622;9.230;2022-09-01T01:48:02;5.20;;;4.80;;
8893;SDS011;4483;48.622;9.230;2022-09-01T01:50:31;5.10;;;4.60;;
8893;SDS011;4483;48.622;9.230;2022-09-01T01:52:59;6.00;;;4.10;;
8893;SDS011;4483;48.622;9.230;2022-09-01T01:55:27;4.97;;;3.73;;
8893;SDS011;4483;48.622;9.230;2022-09-01T01:57:55;5.17;;;4.10;;
8893;SDS011;4483;48.622;9.230;2022-09-01T02:00:24;4.37;;;4.00;;
8893;SDS011;4483;48.622;9.230;2022-09-01T02:02:53;8.37;;;4.03;;
8893;SDS011;4483;48.622;9.230;2022-09-01T02:05:21;4.20;;;3.90;;
8893;SDS011;4483;48.622;9.230;2022-09-01T02:07:50;3.70;;;3.40;;
8893;SDS011;4483;48.622;9.230;2022-09-01T02:10:21;3.90;;;3.50;;
8893;SDS011;4483;48.622;9.230;2022-09-01T02:12:49;8.40;;;3.93;;
8893;SDS011;4483;48.622;9.230;2022-09-01T02:15:16;17.17;;;4.13;;
8893;SDS011;4483;48.622;9.230;2022-09-01T02:17:45;5.73;;;3.83;;
8893;SDS011;4483;48.622;9.230;2022-09-01T02:20:13;4.30;;;4.00;;
8893;SDS011;4483;48.622;9.230;2022-09-01T02:22:41;4.23;;;3.90;;
8893;SDS011;4483;48.622;9.230;2022-09-01T02:25:10;4.17;;;3.87;;
8893;SDS011;4483;48.622;9.230;2022-09-01T02:27:40;4.50;;;4.10;;
8893;SDS011;4483;48.622;9.230;2022-09-01T02:30:08;4.37;;;4.00;;
8893;SDS011;4483;48.622;9.230;2022-09-01T02:32:36;4.50;;;3.67;;
8893;SDS011;4483;48.622;9.230;2022-09-01T02:35:07;5.07;;;4.67;;
8893;SDS011;4483;48.622;9.230;2022-09-01T02:37:36;7.80;;;4.37;;
8893;SDS011;4483;48.622;9.230;2022-09-01T02:40:05;10.87;;;4.13;;
8893;SDS011;4483;48.622;9.230;2022-09-01T02:42:35;30.83;;;4.33;;
8893;SDS011;4483;48.622;9.230;2022-09-01T02:45:05;5.63;;;3.70;;
8893;SDS011;4483;48.622;9.230;2022-09-01T02:47:41;3.97;;;3.67;;
8893;SDS011;4483;48.622;9.230;2022-09-01T02:50:13;5.93;;;4.13;;
8893;SDS011;4483;48.622;9.230;2022-09-01T02:52:41;8.73;;;3.93;;
8893;SDS011;4483;48.622;9.230;2022-09-01T02:55:09;4.30;;;3.93;;
8893;SDS011;4483;48.622;9.230;2022-09-01T02:57:36;3.90;;;3.60;;
8893;SDS011;4483;48.622;9.230;2022-09-01T03:00:03;11.53;;;3.60;;
8893;SDS011;4483;48.622;9.230;2022-09-01T03:02:44;4.10;;;3.27;;
8893;SDS011;4483;48.622;9.230;2022-09-01T03:05:14;3.33;;;3.13;;
8893;SDS011;4483;48.622;9.230;2022-09-01T03:07:52;9.43;;;3.40;;
8893;SDS011;4483;48.622;9.230;2022-09-01T03:10:21;7.43;;;4.20;;
8893;SDS011;4483;48.622;9.230;2022-09-01T03:12:57;8.57;;;3.50;;
8893;SDS011;4483;48.622;9.230;2022-09-01T03:15:25;4.13;;;3.73;;
8893;SDS011;4483;48.622;9.230;2022-09-01T03:17:53;4.40;;;3.47;;
8893;SDS011;4483;48.622;9.230;2022-09-01T03:20:21;4.23;;;3.83;;
8893;SDS011;4483;48.622;9.230;2022-09-01T03:22:48;5.47;;;4.07;;
8893;SDS011;4483;48.622;9.230;2022-09-01T03:25:16;4.37;;;4.00;;
8893;SDS011;4483;48.622;9.230;2022-09-01T03:27:44;4.83;;;4.07;;
8893;SDS011;4483;48.622;9.230;2022-09-01T03:30:11;7.70;;;3.97;;
8893;SDS011;4483;48.622;9.230;2022-09-01T03:32:39;4.20;;;3.87;;
8893;SDS011;4483;48.622;9.230;2022-09-01T03:35:06;5.17;;;4.23;;
8893;SDS011;4483;48.622;9.230;2022-09-01T03:37:35;4.20;;;3.90;;
8893;SDS011;4483;48.622;9.230;2022-09-01T03:40:04;4.53;;;4.13;;
8893;SDS011;4483;48.622;9.230;2022-09-01T03:42:33;4.20;;;3.90;;
8893;SDS011;4483;48.622;9.230;2022-09-01T03:45:00;4.20;;;3.80;;
8893;SDS011;4483;48.622;9.230;2022-09-01T03:47:33;6.17;;;4.30;;
8893;SDS011;4483;48.622;9.230;2022-09-01T03:50:03;4.60;;;4.30;;
8893;SDS011;4483;48.622;9.230;2022-09-01T03:52:31;5.23;;;3.93;;
8893;SDS011;4483;48.622;9.230;2022-09-01T03:54:59;4.33;;;4.03;;
8893;SDS011;4483;48.622;9.230;2022-09-01T03:57:25;5.53;;;3.70;;
8893;SDS011;4483;48.622;9.230;2022-09-01T03:59:54;11.40;;;4.23;;
8893;SDS011;4483;48.622;9.230;2022-09-01T04:02:20;5.87;;;4.10;;
8893;SDS011;4483;48.622;9.230;2022-09-01T04:04:47;5.60;;;4.07;;
8893;SDS011;4483;48.622;9.230;2022-09-01T04:07:14;4.90;;;4.10;;
8893;SDS011;4483;48.622;9.230;2022-09-01T04:09:41;4.60;;;4.20;;
8893;SDS011;4483;48.622;9.230;2022-09-01T04:12:09;4.30;;;3.90;;
8893;SDS011;4483;48.622;9.230;2022-09-01T04:14:39;4.40;;;4.10;;
8893;SDS011;4483;48.622;9.230;2022-09-01T04:17:06;4.00;;;3.80;;
8893;SDS011;4483;48.622;9.230;2022-09-01T04:19:50;4.90;;;3.63;;
8893;SDS011;4483;48.622;9.230;2022-09-01T04:22:17;4.20;;;3.90;;
8893;SDS011;4483;48.622;9.230;2022-09-01T04:24:45;4.63;;;4.33;;
8893;SDS011;4483;48.622;9.230;2022-09-01T04:27:13;4.53;;;4.13;;
8893;SDS011;4483;48.622;9.230;2022-09-01T04:29:42;4.00;;;3.70;;
8893;SDS011;4483;48.622;9.230;2022-09-01T04:32:10;5.13;;;4.10;;
8893;SDS011;4483;48.622;9.230;2022-09-01T04:34:37;4.23;;;3.93;;
8893;SDS011;4483;48.622;9.230;2022-09-01T04:37:09;4.57;;;3.80;;
8893;SDS011;4483;48.622;9.230;2022-09-01T04:39:37;4.20;;;3.83;;
8893;SDS011;4483;48.622;9.230;2022-09-01T04:42:04;4.27;;;3.90;;
8893;SDS011;4483;48.622;9.230;2022-09-01T04:44:34;3.73;;;3.43;;
8893;SDS011;4483;48.622;9.230;2022-09-01T04:47:01;3.87;;;3.67;;
8893;SDS011;4483;48.622;9.230;2022-09-01T04:49:34;3.40;;;3.20;;
8893;SDS011;4483;48.622;9.230;2022-09-01T04:52:01;3.50;;;3.30;;
8893;SDS011;4483;48.622;9.230;2022-09-01T04:54:29;3.97;;;3.67;;
8893;SDS011;4483;48.622;9.230;2022-09-01T04:56:57;3.40;;;3.20;;
8893;SDS011;4483;48.622;9.230;2022-09-01T04:59:23;5.13;;;3.53;;
8893;SDS011;4483;48.622;9.230;2022-09-01T05:01:55;3.20;;;3.00;;
8893;SDS011;4483;48.622;9.230;2022-09-01T05:04:25;3.40;;;3.20;;
8893;SDS011;4483;48.622;9.230;2022-09-01T05:06:56;4.03;;;3.33;;
8893;SDS011;4483;48.622;9.230;2022-09-01T05:09:25;3.73;;;3.37;;
8893;SDS011;4483;48.622;9.230;2022-09-01T05:11:52;3.60;;;3.40;;
8893;SDS011;4483;48.622;9.230;2022-09-01T05:14:20;4.03;;;3.77;;
8893;SDS011;4483;48.622;9.230;2022-09-01T05:16:48;3.47;;;3.27;;
8893;SDS011;4483;48.622;9.230;2022-09-01T05:19:16;4.67;;;3.50;;
8893;SDS011;4483;48.622;9.230;2022-09-01T05:21:46;4.00;;;3.63;;
8893;SDS011;4483;48.622;9.230;2022-09-01T05:24:14;3.30;;;3.10;;
8893;SDS011;4483;48.622;9.230;2022-09-01T05:26:43;3.80;;;3.53;;
8893;SDS011;4483;48.622;9.230;2022-09-01T05:29:11;3.70;;;3.47;;
8893;SDS011;4483;48.622;9.230;2022-09-01T05:31:42;4.37;;;4.07;;
8893;SDS011;4483;48.622;9.230;2022-09-01T05:34:10;4.03;;;3.83;;
8893;SDS011;4483;48.622;9.230;2022-09-01T05:36:40;4.20;;;3.77;;
8893;SDS011;4483;48.622;9.230;2022-09-01T05:39:08;4.60;;;4.30;;
8893;SDS011;4483;48.622;9.230;2022-09-01T05:41:36;4.50;;;4.10;;
8893;SDS011;4483;48.622;9.230;2022-09-01T05:44:05;6.33;;;4.33;;
8893;SDS011;4483;48.622;9.230;2022-09-01T05:46:33;5.50;;;4.83;;
8893;SDS011;4483;48.622;9.230;2022-09-01T05:49:02;7.17;;;4.77;;
8893;SDS011;4483;48.622;9.230;2022-09-01T05:51:31;5.60;;;5.10;;
8893;SDS011;4483;48.622;9.230;2022-09-01T05:54:02;5.10;;;4.70;;
8893;SDS011;4483;48.622;9.230;2022-09-01T05:56:32;4.60;;;4.23;;
8893;SDS011;4483;48.622;9.230;2022-09-01T05:58:59;4.90;;;4.50;;
8893;SDS011;4483;48.622;9.230;2022-09-01T06:01:27;9.97;;;4.43;;
8893;SDS011;4483;48.622;9.230;2022-09-01T06:03:56;5.50;;;5.10;;
8893;SDS011;4483;48.622;9.230;2022-09-01T06:06:25;5.17;;;4.77;;
8893;SDS011;4483;48.622;9.230;2022-09-01T06:08:53;5.10;;;4.60;;
8893;SDS011;4483;48.622;9.230;2022-09-01T06:11:24;5.17;;;4.77;;
8893;SDS011;4483;48.622;9.230;2022-09-01T06:13:57;4.83;;;4.40;;
8893;SDS011;4483;48.622;9.230;2022-09-01T06:16:24;5.07;;;4.67;;
8893;SDS011;4483;48.622;9.230;2022-09-01T06:18:52;4.90;;;4.50;;
8893;SDS011;4483;48.622;9.230;2022-09-01T06:21:21;6.00;;;4.77;;
8893;SDS011;4483;48.622;9.230;2022-09-01T06:23:49;5.13;;;4.73;;
8893;SDS011;4483;48.622;9.230;2022-09-01T06:26:18;4.53;;;4.13;;
8893;SDS011;4483;48.622;9.230;2022-09-01T06:28:49;5.10;;;4.60;;
8893;SDS011;4483;48.622;9.230;2022-09-01T06:31:18;4.37;;;4.07;;
8893;SDS011;4483;48.622;9.230;2022-09-01T06:33:47;4.93;;;4.50;;
8893;SDS011;4483;48.622;9.230;2022-09-01T06:36:15;7.47;;;4.20;;
8893;SDS011;4483;48.622;9.230;2022-09-01T06:38:44;4.97;;;4.60;;
8893;SDS011;4483;48.622;9.230;2022-09-01T06:41:11;7.30;;;4.80;;
8893;SDS011;4483;48.622;9.230;2022-09-01T06:43:38;5.80;;;4.97;;
8893;SDS011;4483;48.622;9.230;2022-09-01T06:46:07;5.10;;;4.70;;
8893;SDS011;4483;48.622;9.230;2022-09-01T06:48:34;5.17;;;4.67;;
8893;SDS011;4483;48.622;9.230;2022-09-01T06:51:04;6.30;;;5.80;;
8893;SDS011;4483;48.622;9.230;2022-09-01T06:53:33;4.60;;;4.30;;
8893;SDS011;4483;48.622;9.230;2022-09-01T06:56:00;5.63;;;4.70;;
8893;SDS011;4483;48.622;9.230;2022-09-01T06:58:27;5.57;;;5.07;;
8893;SDS011;4483;48.622;9.230;2022-09-01T07:00:55;4.83;;;4.43;;
8893;SDS011;4483;48.622;9.230;2022-09-01T07:03:23;4.70;;;4.30;;
8893;SDS011;4483;48.622;9.230;2022-09-01T07:05:51;6.73;;;4.90;;
8893;SDS011;4483;48.622;9.230;2022-09-01T07:08:18;5.67;;;4.63;;
8893;SDS011;4483;48.622;9.230;2022-09-01T07:10:47;5.63;;;5.13;;
8893;SDS011;4483;48.622;9.230;2022-09-01T07:13:16;5.13;;;4.73;;
8893;SDS011;4483;48.622;9.230;2022-09-01T07:15:48;7.97;;;5.10;;
8893;SDS011;4483;48.622;9.230;2022-09-01T07:18:17;4.60;;;4.30;;
8893;SDS011;4483;48.622;9.230;2022-09-01T07:20:46;5.83;;;5.30;;
8893;SDS011;4483;48.622;9.230;2022-09-01T07:23:15;5.53;;;5.03;;
8893;SDS011;4483;48.622;9.230;2022-09-01T07:25:44;5.43;;;4.93;;
8893;SDS011;4483;48.622;9.230;2022-09-01T07:28:13;6.13;;;4.70;;
8893;SDS011;4483;48.622;9.230;2022-09-01T07:30:41;7.40;;;5.87;;
8893;SDS011;4483;48.622;9.230;2022-09-01T07:33:09;7.03;;;6.33;;
8893;SDS011;4483;48.622;9.230;2022-09-01T07:35:37;6.47;;;5.87;;
8893;SDS011;4483;48.622;9.230;2022-09-01T07:38:06;6.97;;;5.80;;
8893;SDS011;4483;48.622;9.230;2022-09-01T07:40:33;5.67;;;5.17;;
8893;SDS011;4483;48.622;9.230;2022-09-01T07:43:03;7.00;;;6.40;;
8893;SDS011;4483;48.622;9.230;2022-09-01T07:45:33;6.07;;;5.40;;
8893;SDS011;4483;48.622;9.230;2022-09-01T07:48:02;6.53;;;6.03;;
8893;SDS011;4483;48.622;9.230;2022-09-01T07:50:31;9.93;;;6.18;;
8893;SDS011;4483;48.622;9.230;2022-09-01T07:52:59;7.15;;;6.45;;
8893;SDS011;4483;48.622;9.230;2022-09-01T07:55:27;7.00;;;6.35;;
8893;SDS011;4483;48.622;9.230;2022-09-01T07:57:54;7.45;;;5.95;;
8893;SDS011;4483;48.622;9.230;2022-09-01T08:00:22;6.63;;;6.03;;
8893;SDS011;4483;48.622;9.230;2022-09-01T08:02:49;7.45;;;6.68;;
8893;SDS011;4483;48.622;9.230;2022-09-01T08:05:16;7.43;;;6.72;;
8893;SDS011;4483;48.622;9.230;2022-09-01T08:07:46;9.00;;;6.80;;
8893;SDS011;4483;48.622;9.230;2022-09-01T08:10:14;9.20;;;8.30;;
8893;SDS011;4483;48.622;9.230;2022-09-01T08:12:43;8.88;;;7.43;;
8893;SDS011;4483;48.622;9.230;2022-09-01T08:15:10;7.93;;;7.13;;
8893;SDS011;4483;48.622;9.230;2022-09-01T08:17:37;7.15;;;6.60;;
8893;SDS011;4483;48.622;9.230;2022-09-01T08:20:05;7.68;;;6.97;;
8893;SDS011;4483;48.622;9.230;2022-09-01T08:22:33;15.20;;;6.95;;
8893;SDS011;4483;48.622;9.230;2022-09-01T08:25:01;7.35;;;6.65;;
8893;SDS011;4483;48.622;9.230;2022-09-01T08:27:28;7.93;;;5.80;;
8893;SDS011;4483;48.622;9.230;2022-09-01T08:29:58;6.68;;;6.07;;
8893;SDS011;4483;48.622;9.230;2022-09-01T08:32:25;5.35;;;4.95;;
8893;SDS011;4483;48.622;9.230;2022-09-01T08:34:52;5.35;;;4.85;;
8893;SDS011;4483;48.622;9.230;2022-09-01T08:37:18;6.00;;;5.38;;
8893;SDS011;4483;48.622;9.230;2022-09-01T08:39:45;5.05;;;4.63;;
8893;SDS011;4483;48.622;9.230;2022-09-01T08:42:14;5.53;;;5.03;;
8893;SDS011;4483;48.622;9.230;2022-09-01T08:44:53;5.30;;;4.70;;
8893;SDS011;4483;48.622;9.230;2022-09-01T08:47:25;4.95;;;4.40;;
8893;SDS011;4483;48.622;9.230;2022-09-01T08:49:52;5.78;;;4.82;;
8893;SDS011;4483;48.622;9.230;2022-09-01T08:52:21;5.32;;;4.93;;
8893;SDS011;4483;48.622;9.230;2022-09-01T08:54:54;5.75;;;4.10;;
8893;SDS011;4483;48.622;9.230;2022-09-01T08:57:28;4.45;;;4.15;;
8893;SDS011;4483;48.622;9.230;2022-09-01T08:59:58;4.75;;;4.30;;
8893;SDS011;4483;48.622;9.230;2022-09-01T09:02:29;4.22;;;3.83;;
8893;SDS011;4483;48.622;9.230;2022-09-01T09:05:06;7.35;;;4.30;;
8893;SDS011;4483;48.622;9.230;2022-09-01T09:07:46;4.15;;;3.70;;
8893;SDS011;4483;48.622;9.230;2022-09-01T09:10:24;4.75;;;3.20;;
8893;SDS011;4483;48.622;9.230;2022-09-01T09:12:58;3.53;;;3.22;;
8893;SDS011;4483;48.622;9.230;2022-09-01T09:15:36;3.50;;;3.17;;
8893;SDS011;4483;48.622;9.230;2022-09-01T09:18:12;3.30;;;3.10;;
8893;SDS011;4483;48.622;9.230;2022-09-01T09:20:45;3.72;;;3.45;;
8893;SDS011;4483;48.622;9.230;2022-09-01T09:23:16;3.70;;;3.40;;
8893;SDS011;4483;48.622;9.230;2022-09-01T09:25:49;3.90;;;3.60;;
8893;SDS011;4483;48.622;9.230;2022-09-01T09:28:16;3.53;;;3.00;;
8893;SDS011;4483;48.622;9.230;2022-09-01T09:30:42;3.20;;;2.97;;
8893;SDS011;4483;48.622;9.230;2022-09-01T09:33:09;3.20;;;2.95;;
8893;SDS011;4483;48.622;9.230;2022-09-01T09:36:15;3.38;;;3.05;;
8893;SDS011;4483;48.622;9.230;2022-09-01T09:38:44;6.60;;;3.13;;
8893;SDS011;4483;48.622;9.230;2022-09-01T09:41:15;3.60;;;3.33;;
8893;SDS011;4483;48.622;9.230;2022-09-01T09:43:44;3.25;;;3.05;;
8893;SDS011;4483;48.622;9.230;2022-09-01T09:46:20;2.78;;;2.67;;
8893;SDS011;4483;48.622;9.230;2022-09-01T09:49:05;2.80;;;2.60;;
8893;SDS011;4483;48.622;9.230;2022-09-01T09:51:37;2.67;;;2.47;;
8893;SDS011;4483;48.622;9.230;2022-09-01T09:54:13;3.00;;;2.70;;
8893;SDS011;4483;48.622;9.230;2022-09-01T09:56:43;2.70;;;2.50;;
8893;SDS011;4483;48.622;9.230;2022-09-01T10:01:59;3.08;;;2.88;;
8893;SDS011;4483;48.622;9.230;2022-09-01T10:04:41;2.92;;;2.72;;
8893;SDS011;4483;48.622;9.230;2022-09-01T10:07:25;2.97;;;2.70;;
8893;SDS011;4483;48.622;9.230;2022-09-01T10:09:55;2.80;;;2.60;;
8893;SDS011;4483;48.622;9.230;2022-09-01T10:12:24;2.78;;;2.67;;
8893;SDS011;4483;48.622;9.230;2022-09-01T10:14:53;3.20;;;2.60;;
8893;SDS011;4483;48.622;9.230;2022-09-01T10:17:24;3.10;;;2.90;;
8893;SDS011;4483;48.622;9.230;2022-09-01T10:19:58;3.08;;;2.85;;
8893;SDS011;4483;48.622;9.230;2022-09-01T10:22:30;2.60;;;2.40;;
8893;SDS011;4483;48.622;9.230;2022-09-01T10:24:58;2.88;;;2.67;;
8893;SDS011;4483;48.622;9.230;2022-09-01T10:27:26;3.55;;;2.70;;
8893;SDS011;4483;48.622;9.230;2022-09-01T10:29:56;3.00;;;2.80;;
8893;SDS011;4483;48.622;9.230;2022-09-01T10:32:31;2.90;;;2.70;;
8893;SDS011;4483;48.622;9.230;2022-09-01T10:35:03;2.53;;;2.42;;
8893;SDS011;4483;48.622;9.230;2022-09-01T10:37:32;2.35;;;2.25;;
8893;SDS011;4483;48.622;9.230;2022-09-01T10:40:12;3.35;;;2.42;;
8893;SDS011;4483;48.622;9.230;2022-09-01T10:42:43;2.40;;;2.20;;
8893;SDS011;4483;48.622;9.230;2022-09-01T10:45:18;2.58;;;2.38;;
8893;SDS011;4483;48.622;9.230;2022-09-01T10:47:55;2.45;;;2.28;;
8893;SDS011;4483;48.622;9.230;2022-09-01T10:50:25;2.58;;;2.38;;
8893;SDS011;4483;48.622;9.230;2022-09-01T10:52:59;2.50;;;2.40;;
8893;SDS011;4483;48.622;9.230;2022-09-01T11:01:00;4.93;;;2.40;;
8893;SDS011;4483;48.622;9.230;2022-09-01T11:03:37;2.58;;;2.38;;
8893;SDS011;4483;48.622;9.230;2022-09-01T11:09:25;2.40;;;2.30;;
8893;SDS011;4483;48.622;9.230;2022-09-01T11:11:59;2.30;;;2.20;;
8893;SDS011;4483;48.622;9.230;2022-09-01T11:14:48;4.90;;;2.30;;
8893;SDS011;4483;48.622;9.230;2022-09-01T11:17:17;2.53;;;2.33;;
8893;SDS011;4483;48.622;9.230;2022-09-01T11:19:52;2.25;;;2.15;;
8893;SDS011;4483;48.622;9.230;2022-09-01T11:22:27;2.50;;;2.40;;
8893;SDS011;4483;48.622;9.230;2022-09-01T11:31:21;2.47;;;2.38;;
8893;SDS011;4483;48.622;9.230;2022-09-01T11:34:00;2.47;;;2.38;;
8893;SDS011;4483;48.622;9.230;2022-09-01T11:36:48;2.92;;;2.20;;
8893;SDS011;4483;48.622;9.230;2022-09-01T11:39:36;2.50;;;2.30;;
8893;SDS011;4483;48.622;9.230;2022-09-01T11:42:07;2.20;;;2.10;;
8893;SDS011;4483;48.622;9.230;2022-09-01T11:44:41;2.08;;;1.98;;
8893;SDS011;4483;48.622;9.230;2022-09-01T11:47:15;2.10;;;2.00;;
8893;SDS011;4483;48.622;9.230;2022-09-01T11:49:49;1.85;;;1.83;;
8893;SDS011;4483;48.622;9.230;2022-09-01T11:52:19;2.10;;;2.00;;
8893;SDS011;4483;48.622;9.230;2022-09-01T11:54:48;2.42;;;2.22;;
8893;SDS011;4483;48.622;9.230;2022-09-01T11:57:16;2.35;;;2.20;;
8893;SDS011;4483;48.622;9.230;2022-09-01T11:59:46;2.17;;;2.08;;
8893;SDS011;4483;48.622;9.230;2022-09-01T12:02:16;2.20;;;2.00;;
8893;SDS011;4483;48.622;9.230;2022-09-01T12:04:44;2.00;;;1.90;;
8893;SDS011;4483;48.622;9.230;2022-09-01T12:07:12;2.30;;;2.20;;
8893;SDS011;4483;48.622;9.230;2022-09-01T12:09:48;2.40;;;2.30;;
8893;SDS011;4483;48.622;9.230;2022-09-01T12:12:26;2.35;;;2.25;;
8893;SDS011;4483;48.622;9.230;2022-09-01T12:14:56;2.40;;;2.30;;
8893;SDS011;4483;48.622;9.230;2022-09-01T12:17:24;2.60;;;2.40;;
8893;SDS011;4483;48.622;9.230;2022-09-01T12:19:51;2.30;;;2.20;;
8893;SDS011;4483;48.622;9.230;2022-09-01T12:22:18;2.70;;;2.40;;
8893;SDS011;4483;48.622;9.230;2022-09-01T12:24:47;2.58;;;2.47;;
8893;SDS011;4483;48.622;9.230;2022-09-01T12:27:15;2.50;;;2.30;;
8893;SDS011;4483;48.622;9.230;2022-09-01T12:29:42;3.08;;;2.42;;
8893;SDS011;4483;48.622;9.230;2022-09-01T12:32:11;2.70;;;2.50;;
8893;SDS011;4483;48.622;9.230;2022-09-01T12:34:39;3.08;;;2.30;;
8893;SDS011;4483;48.622;9.230;2022-09-01T12:37:08;2.60;;;2.40;;
8893;SDS011;4483;48.622;9.230;2022-09-01T12:39:38;2.13;;;2.03;;
8893;SDS011;4483;48.622;9.230;2022-09-01T12:42:11;2.60;;;2.28;;
8893;SDS011;4483;48.622;9.230;2022-09-01T12:44:50;2.28;;;2.10;;
8893;SDS011;4483;48.622;9.230;2022-09-01T12:58:49;2.38;;;2.17;;
8893;SDS011;4483;48.622;9.230;2022-09-01T13:01:29;2.22;;;2.13;;
8893;SDS011;4483;48.622;9.230;2022-09-01T13:04:12;2.42;;;2.25;;
8893;SDS011;4483;48.622;9.230;2022-09-01T13:06:48;2.13;;;2.03;;
8893;SDS011;4483;48.622;9.230;2022-09-01T13:09:15;2.22;;;2.13;;
8893;SDS011;4483;48.622;9.230;2022-09-01T13:11:42;2.38;;;2.28;;
8893;SDS011;4483;48.622;9.230;2022-09-01T13:14:12;2.50;;;2.40;;
8893;SDS011;4483;48.622;9.230;2022-09-01T13:16:39;2.47;;;2.20;;
8893;SDS011;4483;48.622;9.230;2022-09-01T13:19:06;4.32;;;2.58;;
8893;SDS011;4483;48.622;9.230;2022-09-01T13:21:34;2.42;;;2.33;;
8893;SDS011;4483;48.622;9.230;2022-09-01T13:24:02;2.65;;;2.45;;
8893;SDS011;4483;48.622;9.230;2022-09-01T13:26:30;2.20;;;2.10;;
8893;SDS011;4483;48.622;9.230;2022-09-01T13:28:58;2.08;;;1.98;;
8893;SDS011;4483;48.622;9.230;2022-09-01T13:31:25;2.60;;;2.40;;
8893;SDS011;4483;48.622;9.230;2022-09-01T13:33:53;2.53;;;2.42;;
8893;SDS011;4483;48.622;9.230;2022-09-01T13:36:20;2.30;;;2.20;;
8893;SDS011;4483;48.622;9.230;2022-09-01T13:38:48;2.45;;;2.30;;
8893;SDS011;4483;48.622;9.230;2022-09-01T13:41:14;2.35;;;2.25;;
8893;SDS011;4483;48.622;9.230;2022-09-01T13:43:42;2.45;;;2.13;;
8893;SDS011;4483;48.622;9.230;2022-09-01T13:46:09;2.60;;;2.45;;
8893;SDS011;4483;48.622;9.230;2022-09-01T13:48:36;2.70;;;2.50;;
8893;SDS011;4483;48.622;9.230;2022-09-01T13:51:03;2.30;;;2.20;;
8893;SDS011;4483;48.622;9.230;2022-09-01T13:53:29;2.63;;;2.50;;
8893;SDS011;4483;48.622;9.230;2022-09-01T13:55:57;2.67;;;2.47;;
8893;SDS011;4483;48.622;9.230;2022-09-01T13:58:24;3.10;;;2.90;;
8893;SDS011;4483;48.622;9.230;2022-09-01T14:00:51;2.60;;;2.40;;
8893;SDS011;4483;48.622;9.230;2022-09-01T14:03:18;2.85;;;2.30;;
8893;SDS011;4483;48.622;9.230;2022-09-01T14:05:47;2.72;;;2.55;;
8893;SDS011;4483;48.622;9.230;2022-09-01T14:08:15;3.65;;;2.33;;
8893;SDS011;4483;48.622;9.230;2022-09-01T14:10:44;2.53;;;2.40;;
8893;SDS011;4483;48.622;9.230;2022-09-01T14:13:14;2.60;;;2.38;;
8893;SDS011;4483;48.622;9.230;2022-09-01T14:15:41;2.63;;;2.47;;
8893;SDS011;4483;48.622;9.230;2022-09-01T14:18:08;2.92;;;2.58;;
8893;SDS011;4483;48.622;9.230;2022-09-01T14:20:36;2.75;;;2.40;;
8893;SDS011;4483;48.622;9.230;2022-09-01T14:23:06;2.38;;;2.28;;
8893;SDS011;4483;48.622;9.230;2022-09-01T14:25:34;2.67;;;2.45;;
8893;SDS011;4483;48.622;9.230;2022-09-01T14:28:03;2.90;;;2.70;;
8893;SDS011;4483;48.622;9.230;2022-09-01T14:30:31;3.47;;;2.40;;
8893;SDS011;4483;48.622;9.230;2022-09-01T14:32:58;2.38;;;2.28;;
8893;SDS011;4483;48.622;9.230;2022-09-01T14:35:26;2.47;;;2.28;;
8893;SDS011;4483;48.622;9.230;2022-09-01T14:37:57;2.35;;;2.25;;
8893;SDS011;4483;48.622;9.230;2022-09-01T14:40:24;2.20;;;2.10;;
8893;SDS011;4483;48.622;9.230;2022-09-01T14:42:52;2.15;;;2.05;;
8893;SDS011;4483;48.622;9.230;2022-09-01T14:45:20;2.10;;;2.00;;
8893;SDS011;4483;48.622;9.230;2022-09-01T14:47:51;2.20;;;2.10;;
8893;SDS011;4483;48.622;9.230;2022-09-01T14:50:20;3.72;;;2.35;;
8893;SDS011;4483;48.622;9.230;2022-09-01T14:52:48;2.95;;;2.13;;
8893;SDS011;4483;48.622;9.230;2022-09-01T14:55:17;2.28;;;2.17;;
8893;SDS011;4483;48.622;9.230;2022-09-01T14:57:45;2.55;;;2.35;;
8893;SDS011;4483;48.622;9.230;2022-09-01T15:00:11;2.03;;;1.92;;
8893;SDS011;4483;48.622;9.230;2022-09-01T15:02:39;4.72;;;2.40;;
8893;SDS011;4483;48.622;9.230;2022-09-01T15:05:09;2.20;;;2.10;;
8893;SDS011;4483;48.622;9.230;2022-09-01T15:07:37;2.45;;;2.25;;
8893;SDS011;4483;48.622;9.230;2022-09-01T15:10:05;2.22;;;2.13;;
8893;SDS011;4483;48.622;9.230;2022-09-01T15:12:33;2.10;;;2.00;;
8893;SDS011;4483;48.622;9.230;2022-09-01T15:15:01;2.50;;;2.30;;
8893;SDS011;4483;48.622;9.230;2022-09-01T15:17:27;3.58;;;2.30;;
8893;SDS011;4483;48.622;9.230;2022-09-01T15:19:54;2.28;;;2.17;;
8893;SDS011;4483;48.622;9.230;2022-09-01T15:22:42;2.08;;;1.98;;
8893;SDS011;4483;48.622;9.230;2022-09-01T15:25:09;2.40;;;2.30;;
8893;SDS011;4483;48.622;9.230;2022-09-01T15:27:36;2.47;;;2.25;;
8893;SDS011;4483;48.622;9.230;2022-09-01T15:30:02;2.15;;;2.05;;
8893;SDS011;4483;48.622;9.230;2022-09-01T15:32:39;3.05;;;2.40;;
8893;SDS011;4483;48.622;9.230;2022-09-01T15:35:06;2.13;;;2.03;;
8893;SDS011;4483;48.622;9.230;2022-09-01T15:37:34;3.53;;;2.30;;
8893;SDS011;4483;48.622;9.230;2022-09-01T15:40:02;2.67;;;2.30;;
8893;SDS011;4483;48.622;9.230;2022-09-01T15:42:31;2.70;;;2.50;;
8893;SDS011;4483;48.622;9.230;2022-09-01T15:44:58;2.88;;;2.47;;
8893;SDS011;4483;48.622;9.230;2022-09-01T15:47:24;2.92;;;2.70;;
8893;SDS011;4483;48.622;9.230;2022-09-01T15:49:51;2.30;;;2.20;;
8893;SDS011;4483;48.622;9.230;2022-09-01T15:52:18;4.93;;;2.28;;
8893;SDS011;4483;48.622;9.230;2022-09-01T15:54:45;3.10;;;2.58;;
8893;SDS011;4483;48.622;9.230;2022-09-01T15:57:13;2.92;;;2.70;;
8893;SDS011;4483;48.622;9.230;2022-09-01T15:59:40;2.38;;;2.20;;